createdAt,value
2019-04-07T00:01:20.717Z,64.46
2019-04-07T00:03:51.653Z,64.24
2019-04-07T00:06:22.455Z,64.28
2019-04-07T00:08:53.570Z,64.59
2019-04-07T00:11:24.146Z,64.45
2019-04-07T00:13:55.204Z,65.18
2019-04-07T00:16:25.692Z,64.68
2019-04-07T00:18:56.853Z,64.71
2019-04-07T00:21:28.015Z,64.35
2019-04-07T00:24:01.503Z,64.39
2019-04-07T00:26:31.224Z,64.44
2019-04-07T00:29:01.771Z,64.42
2019-04-07T00:31:32.216Z,64.56
2019-04-07T00:34:02.814Z,64.46
2019-04-07T00:36:34.175Z,64.39
2019-04-07T00:39:06.202Z,65.40
2019-04-07T00:41:36.657Z,65.44
2019-04-07T00:44:07.259Z,66.14
2019-04-07T00:46:37.787Z,65.67
2019-04-07T00:49:08.340Z,66.08
2019-04-07T00:51:38.993Z,65.15
2019-04-07T00:54:09.928Z,65.52
2019-04-07T00:56:40.369Z,65.64
2019-04-07T00:59:10.810Z,65.47
2019-04-07T01:01:43.247Z,65.11
2019-04-07T01:04:13.811Z,64.76
2019-04-07T01:06:44.827Z,65.61
2019-04-07T01:09:15.686Z,65.62
2019-04-07T01:11:46.099Z,65.20
2019-04-07T01:14:17.029Z,65.40
2019-04-07T01:16:48.094Z,65.48
2019-04-07T01:19:18.978Z,65.70
2019-04-07T01:21:49.959Z,65.55
2019-04-07T01:24:21.040Z,65.08
2019-04-07T01:26:51.583Z,65.88
2019-04-07T01:29:22.074Z,65.01
2019-04-07T01:31:52.625Z,65.28
2019-04-07T01:34:24.017Z,65.31
2019-04-07T01:36:54.513Z,65.98
2019-04-07T01:39:24.993Z,65.99
2019-04-07T01:42:10.421Z,65.73
2019-04-07T01:44:58.457Z,66.11
2019-04-07T01:47:39.741Z,66.39
2019-04-07T01:50:35.240Z,66.49
2019-04-07T01:53:34.339Z,66.12
2019-04-07T01:56:22.948Z,65.75
2019-04-07T01:59:15.488Z,66.04
2019-04-07T02:01:59.312Z,66.34
2019-04-07T02:04:41.702Z,66.20
2019-04-07T02:07:34.674Z,66.34
2019-04-07T02:10:42.929Z,66.29
2019-04-07T02:13:32.872Z,66.19
2019-04-07T02:16:20.451Z,66.77
2019-04-07T02:19:21.685Z,66.92
2019-04-07T02:22:11.133Z,66.94
2019-04-07T02:24:49.889Z,66.95
2019-04-07T02:27:45.752Z,66.94
2019-04-07T02:30:35.154Z,67.05
2019-04-07T02:33:15.381Z,67.26
2019-04-07T02:36:15.682Z,67.39
2019-04-07T02:38:51.948Z,67.28
2019-04-07T02:41:30.623Z,68.28
2019-04-07T02:44:30.117Z,68.26
2019-04-07T02:47:22.595Z,67.68
2019-04-07T02:50:15.511Z,67.85
2019-04-07T02:53:07.735Z,67.87
2019-04-07T02:56:03.484Z,68.50
2019-04-07T02:58:48.312Z,68.24
2019-04-07T03:01:27.886Z,68.52
2019-04-07T03:04:23.262Z,68.08
2019-04-07T03:07:13.531Z,67.89
2019-04-07T03:10:05.811Z,68.23
2019-04-07T03:13:04.847Z,68.67
2019-04-07T03:15:50.075Z,68.15
2019-04-07T03:18:39.052Z,68.18
2019-04-07T03:21:40.587Z,68.05
2019-04-07T03:24:36.826Z,68.10
2019-04-07T03:27:24.633Z,68.16
2019-04-07T03:30:14.398Z,67.99
2019-04-07T03:33:23.208Z,68.40
2019-04-07T03:36:11.672Z,67.99
2019-04-07T03:38:59.744Z,68.23
2019-04-07T03:41:38.669Z,68.20
2019-04-07T03:44:15.356Z,68.24
2019-04-07T03:47:08.799Z,68.85
2019-04-07T03:49:54.935Z,68.67
2019-04-07T03:52:42.907Z,68.79
2019-04-07T03:55:21.934Z,68.82
2019-04-07T03:58:16.040Z,68.63
2019-04-07T04:01:35.779Z,68.44
2019-04-07T04:04:37.528Z,68.45
2019-04-07T04:07:22.458Z,68.11
2019-04-07T04:10:24.294Z,68.09
2019-04-07T04:13:16.583Z,68.09
2019-04-07T04:16:03.104Z,68.08
2019-04-07T04:18:33.597Z,67.99
2019-04-07T04:21:04.137Z,67.87
2019-04-07T04:23:35.479Z,67.77
2019-04-07T04:26:06.465Z,67.77
2019-04-07T04:28:36.934Z,67.99
2019-04-07T04:31:07.432Z,68.30
2019-04-07T04:33:37.936Z,69.15
2019-04-07T04:36:08.438Z,68.40
2019-04-07T04:38:38.897Z,68.06
2019-04-07T04:41:10.104Z,68.22
2019-04-07T04:43:40.646Z,68.19
2019-04-07T04:46:12.374Z,68.39
2019-04-07T04:48:43.228Z,68.43
2019-04-07T04:51:13.673Z,68.66
2019-04-07T04:53:44.369Z,69.05
2019-04-07T04:56:15.236Z,69.07
2019-04-07T04:58:45.768Z,69.15
2019-04-07T05:01:16.294Z,68.82
2019-04-07T05:03:47.488Z,68.40
2019-04-07T05:06:18.065Z,69.33
2019-04-07T05:08:48.660Z,68.62
2019-04-07T05:11:19.124Z,68.62
2019-04-07T05:13:50.166Z,68.50
2019-04-07T05:16:21.373Z,68.73
2019-04-07T05:18:51.906Z,68.56
2019-04-07T05:21:22.373Z,68.23
2019-04-07T05:23:52.814Z,67.77
2019-04-07T05:26:24.028Z,67.64
2019-04-07T05:28:55.079Z,67.29
2019-04-07T05:31:25.843Z,67.71
2019-04-07T05:33:56.628Z,67.28
2019-04-07T05:36:27.695Z,67.34
2019-04-07T05:38:58.246Z,67.38
2019-04-07T05:41:29.537Z,67.06
2019-04-07T05:44:00.053Z,67.44
2019-04-07T05:46:30.500Z,66.70
2019-04-07T05:49:00.996Z,67.04
2019-04-07T05:51:31.470Z,67.57
2019-04-07T05:54:02.595Z,67.36
2019-04-07T05:56:33.155Z,66.97
2019-04-07T05:59:03.620Z,66.85
2019-04-07T06:01:34.516Z,66.72
2019-04-07T06:04:05.632Z,66.49
2019-04-07T06:06:37.039Z,66.26
2019-04-07T06:09:08.633Z,66.84
2019-04-07T06:11:39.120Z,66.82
2019-04-07T06:14:11.548Z,66.56
2019-04-07T06:16:41.727Z,66.68
2019-04-07T06:19:12.216Z,66.62
2019-04-07T06:21:46.166Z,65.60
2019-04-07T06:24:14.850Z,66.14
2019-04-07T06:26:48.174Z,65.73
2019-04-07T06:29:18.242Z,65.41
2019-04-07T06:31:49.500Z,65.38
2019-04-07T06:34:20.037Z,65.46
2019-04-07T06:36:53.613Z,65.41
2019-04-07T06:39:23.233Z,66.24
2019-04-07T06:41:53.678Z,65.85
2019-04-07T06:44:24.353Z,65.93
2019-04-07T06:47:13.182Z,64.10
2019-04-07T06:50:22.260Z,64.89
2019-04-07T06:53:18.598Z,63.77
2019-04-07T06:56:02.026Z,63.10
2019-04-07T06:58:55.682Z,63.10
2019-04-07T07:01:45.025Z,63.55
2019-04-07T07:04:34.350Z,64.65
2019-04-07T07:07:22.682Z,63.94
2019-04-07T07:10:26.131Z,63.45
2019-04-07T07:13:11.866Z,63.17
2019-04-07T07:16:09.568Z,62.80
2019-04-07T07:18:58.178Z,63.10
2019-04-07T07:21:53.277Z,62.16
2019-04-07T07:24:25.715Z,62.85
2019-04-07T07:26:57.930Z,62.68
2019-04-07T07:29:28.813Z,63.60
2019-04-07T07:32:03.318Z,62.70
2019-04-07T07:34:32.375Z,61.45
2019-04-07T07:37:03.045Z,62.58
2019-04-07T07:39:34.073Z,61.68
2019-04-07T07:42:04.609Z,61.97
2019-04-07T07:44:38.191Z,62.34
2019-04-07T07:47:07.950Z,61.72
2019-04-07T07:49:40.315Z,62.24
2019-04-07T07:52:10.575Z,61.96
2019-04-07T07:54:41.107Z,62.72
2019-04-07T07:57:12.270Z,62.46
2019-04-07T07:59:43.257Z,62.51
2019-04-07T08:02:17.532Z,61.79
2019-04-07T08:04:45.973Z,62.78
2019-04-07T08:07:16.637Z,62.71
2019-04-07T08:09:47.166Z,62.14
2019-04-07T08:12:17.735Z,63.06
2019-04-07T08:14:52.210Z,63.19
2019-04-07T08:17:20.366Z,63.81
2019-04-07T08:19:51.290Z,64.56
2019-04-07T08:22:31.314Z,63.65
2019-04-07T08:24:54.585Z,63.80
2019-04-07T08:27:29.954Z,63.38
2019-04-07T08:29:57.260Z,64.00
2019-04-07T08:32:30.923Z,64.09
2019-04-07T08:35:02.085Z,63.73
2019-04-07T08:37:32.239Z,63.24
2019-04-07T08:40:06.969Z,62.66
2019-04-07T08:42:34.880Z,62.90
2019-04-07T08:45:05.833Z,61.25
2019-04-07T08:47:36.336Z,61.98
2019-04-07T08:50:07.300Z,60.74
2019-04-07T08:52:40.721Z,59.56
2019-04-07T08:55:10.376Z,61.32
2019-04-07T08:57:41.265Z,60.23
2019-04-07T09:00:18.338Z,59.82
2019-04-07T09:03:00.778Z,59.07
2019-04-07T09:05:26.704Z,59.72
2019-04-07T09:07:53.958Z,58.48
2019-04-07T09:10:32.545Z,58.92
2019-04-07T09:13:03.630Z,58.41
2019-04-07T09:15:45.285Z,60.17
2019-04-07T09:18:21.892Z,59.36
2019-04-07T09:21:13.389Z,60.22
2019-04-07T09:23:59.256Z,60.31
2019-04-07T09:26:42.812Z,58.29
2019-04-07T09:29:37.733Z,58.50
2019-04-07T09:32:15.673Z,58.19
2019-04-07T09:35:25.720Z,58.64
2019-04-07T09:38:03.452Z,59.07
2019-04-07T09:41:00.545Z,57.99
2019-04-07T09:43:43.911Z,57.66
2019-04-07T09:46:33.179Z,57.74
2019-04-07T09:49:23.796Z,58.44
2019-04-07T09:52:19.491Z,58.62
2019-04-07T09:55:08.558Z,58.59
2019-04-07T09:58:11.618Z,58.94
2019-04-07T10:01:06.120Z,58.63
2019-04-07T10:04:00.272Z,58.00
2019-04-07T10:06:49.534Z,57.12
2019-04-07T10:09:41.123Z,57.33
2019-04-07T10:12:33.581Z,57.47
2019-04-07T10:15:25.808Z,56.71
2019-04-07T10:18:11.016Z,56.30
2019-04-07T10:21:03.444Z,55.97
2019-04-07T10:23:51.221Z,55.46
2019-04-07T10:26:40.852Z,54.19
2019-04-07T10:29:27.624Z,53.76
2019-04-07T10:32:12.493Z,55.11
2019-04-07T10:35:01.101Z,54.37
2019-04-07T10:37:42.802Z,54.40
2019-04-07T10:40:33.584Z,54.16
2019-04-07T10:43:23.796Z,55.85
2019-04-07T10:46:07.848Z,54.02
2019-04-07T10:49:12.032Z,55.23
2019-04-07T10:52:11.214Z,55.70
2019-04-07T10:54:50.213Z,54.35
2019-04-07T10:57:36.722Z,55.25
2019-04-07T11:00:26.349Z,54.25
2019-04-07T11:03:14.653Z,54.17
2019-04-07T11:06:05.238Z,53.80
2019-04-07T11:08:49.067Z,53.99
2019-04-07T11:11:47.012Z,54.29
2019-04-07T11:14:47.619Z,53.87
2019-04-07T11:17:34.077Z,53.88
2019-04-07T11:20:19.370Z,55.76
2019-04-07T11:23:17.853Z,56.77
2019-04-07T11:26:13.485Z,55.65
2019-04-07T11:28:52.396Z,54.20
2019-04-07T11:31:36.930Z,56.25
2019-04-07T11:34:19.951Z,55.46
2019-04-07T11:37:24.516Z,55.50
2019-04-07T11:40:04.718Z,55.67
2019-04-07T11:42:44.914Z,55.20
2019-04-07T11:45:33.468Z,55.10
2019-04-07T11:48:29.405Z,55.13
2019-04-07T11:51:14.163Z,55.71
2019-04-07T11:54:03.446Z,54.26
2019-04-07T11:56:47.209Z,53.71
2019-04-07T11:59:35.963Z,53.29
2019-04-07T12:02:28.561Z,52.75
2019-04-07T12:05:14.715Z,53.34
2019-04-07T12:08:02.450Z,53.03
2019-04-07T12:11:06.788Z,54.83
2019-04-07T12:14:09.052Z,53.72
2019-04-07T12:16:50.371Z,55.36
2019-04-07T12:19:34.127Z,54.92
2019-04-07T12:22:20.353Z,56.01
2019-04-07T12:25:07.968Z,54.85
2019-04-07T12:28:09.859Z,55.22
2019-04-07T12:30:48.246Z,57.38
2019-04-07T12:33:38.625Z,56.12
2019-04-07T12:36:31.794Z,55.57
2019-04-07T12:39:27.522Z,55.39
2019-04-07T12:42:23.398Z,55.68
2019-04-07T12:45:13.423Z,56.11
2019-04-07T12:48:01.472Z,56.55
2019-04-07T12:50:54.104Z,57.19
2019-04-07T12:53:43.299Z,56.45
2019-04-07T12:56:33.971Z,56.50
2019-04-07T12:59:23.882Z,56.70
2019-04-07T13:02:15.438Z,56.21
2019-04-07T13:05:05.276Z,57.38
2019-04-07T13:07:54.299Z,56.72
2019-04-07T13:10:39.350Z,58.45
2019-04-07T13:13:31.600Z,57.09
2019-04-07T13:16:34.953Z,56.84
2019-04-07T13:19:25.275Z,57.28
2019-04-07T13:22:20.507Z,59.08
2019-04-07T13:25:13.160Z,56.98
2019-04-07T13:28:09.601Z,56.94
2019-04-07T13:30:59.071Z,57.90
2019-04-07T13:33:48.416Z,57.22
2019-04-07T13:36:31.913Z,57.31
2019-04-07T13:39:27.038Z,56.16
2019-04-07T13:42:15.280Z,56.48
2019-04-07T13:44:54.747Z,57.51
2019-04-07T13:47:56.842Z,56.88
2019-04-07T13:50:55.777Z,56.22
2019-04-07T13:53:42.145Z,55.93
2019-04-07T13:56:30.784Z,56.18
2019-04-07T13:59:20.412Z,56.12
2019-04-07T14:02:15.782Z,56.58
2019-04-07T14:05:05.252Z,56.29
2019-04-07T14:07:53.206Z,56.29
2019-04-07T14:10:35.718Z,57.26
2019-04-07T14:13:19.784Z,57.19
2019-04-07T14:16:12.748Z,57.41
2019-04-07T14:18:52.488Z,57.47
2019-04-07T14:21:52.267Z,57.68
2019-04-07T14:24:50.066Z,58.11
2019-04-07T14:27:29.753Z,57.85
2019-04-07T14:30:19.201Z,58.09
2019-04-07T14:33:14.029Z,57.99
2019-04-07T14:36:02.048Z,57.99
2019-04-07T14:38:52.011Z,58.16
2019-04-07T14:41:39.326Z,58.52
2019-04-07T14:44:26.947Z,58.72
2019-04-07T14:47:31.418Z,58.76
2019-04-07T14:50:24.441Z,59.19
2019-04-07T14:53:21.063Z,59.19
2019-04-07T14:56:13.539Z,59.65
2019-04-07T14:59:06.646Z,60.76
2019-04-07T15:01:54.044Z,60.12
2019-04-07T15:04:30.214Z,60.10
2019-04-07T15:07:12.601Z,60.21
2019-04-07T15:09:51.247Z,60.37
2019-04-07T15:12:41.392Z,60.76
2019-04-07T15:15:12.081Z,61.14
2019-04-07T15:17:43.552Z,61.67
2019-04-07T15:20:16.311Z,62.31
2019-04-07T15:22:48.181Z,62.53
2019-04-07T15:25:19.501Z,62.52
2019-04-07T15:27:49.988Z,62.63
2019-04-07T15:30:20.801Z,63.10
2019-04-07T15:32:51.582Z,63.66
2019-04-07T15:35:22.169Z,64.16
2019-04-07T15:37:52.750Z,63.77
2019-04-07T15:40:23.525Z,63.67
2019-04-07T15:42:54.036Z,63.85
2019-04-07T15:45:24.583Z,63.98
2019-04-07T15:47:55.240Z,64.14
2019-04-07T15:50:29.237Z,64.57
2019-04-07T15:52:58.423Z,64.92
2019-04-07T15:55:43.289Z,64.57
2019-04-07T15:58:02.016Z,65.08
2019-04-07T16:00:35.182Z,64.74
2019-04-07T16:03:05.496Z,64.87
2019-04-07T16:05:42.195Z,64.82
2019-04-07T16:08:08.769Z,65.09
2019-04-07T16:10:41.330Z,65.14
2019-04-07T16:13:11.844Z,65.15
2019-04-07T16:15:44.635Z,64.79
2019-04-07T16:18:14.759Z,65.22
2019-04-07T16:20:45.663Z,65.07
2019-04-07T16:23:18.339Z,65.03
2019-04-07T16:25:48.331Z,65.13
2019-04-07T16:28:18.796Z,65.04
2019-04-07T16:30:52.008Z,65.16
2019-04-07T16:33:21.748Z,65.83
2019-04-07T16:35:55.261Z,65.94
2019-04-07T16:38:25.246Z,66.17
2019-04-07T16:40:55.951Z,66.06
2019-04-07T16:43:30.572Z,65.71
2019-04-07T16:45:58.592Z,66.20
2019-04-07T16:48:29.113Z,66.28
2019-04-07T16:51:02.656Z,66.39
2019-04-07T16:53:34.500Z,66.15
2019-04-07T16:56:05.222Z,66.14
2019-04-07T16:58:38.562Z,66.22
2019-04-07T17:01:08.103Z,66.72
2019-04-07T17:03:38.626Z,66.98
2019-04-07T17:06:11.982Z,66.95
2019-04-07T17:08:42.238Z,66.95
2019-04-07T17:11:13.929Z,67.10
2019-04-07T17:13:45.992Z,67.54
2019-04-07T17:16:21.490Z,67.70
2019-04-07T17:18:49.898Z,67.25
2019-04-07T17:21:22.599Z,67.46
2019-04-07T17:23:55.428Z,67.84
2019-04-07T17:26:25.268Z,68.17
2019-04-07T17:28:57.388Z,68.28
2019-04-07T17:31:31.036Z,68.59
2019-04-07T17:34:00.957Z,68.81
2019-04-07T17:36:32.898Z,69.05
2019-04-07T17:39:26.815Z,69.09
2019-04-07T17:41:59.284Z,69.33
2019-04-07T17:44:48.357Z,69.37
2019-04-07T17:47:37.073Z,69.48
2019-04-07T17:50:31.667Z,69.62
2019-04-07T17:53:16.251Z,69.97
2019-04-07T17:56:16.458Z,70.06
2019-04-07T17:59:02.435Z,70.12
2019-04-07T18:01:52.420Z,70.33
2019-04-07T18:04:42.604Z,70.32
2019-04-07T18:07:30.043Z,70.35
2019-04-07T18:10:11.969Z,70.68
2019-04-07T18:13:00.013Z,70.72
2019-04-07T18:16:08.277Z,70.89
2019-04-07T18:18:59.155Z,71.04
2019-04-07T18:21:51.675Z,70.98
2019-04-07T18:24:35.744Z,71.17
2019-04-07T18:27:34.210Z,71.26
2019-04-07T18:30:22.557Z,71.50
2019-04-07T18:33:13.030Z,71.58
2019-04-07T18:36:03.292Z,71.59
2019-04-07T18:38:49.650Z,71.68
2019-04-07T18:41:40.422Z,71.72
2019-04-07T18:44:35.327Z,71.60
2019-04-07T18:47:27.374Z,71.39
2019-04-07T18:50:16.602Z,71.54
2019-04-07T18:53:07.136Z,71.61
2019-04-07T18:56:03.536Z,71.75
2019-04-07T18:58:51.159Z,71.53
2019-04-07T19:01:38.969Z,71.67
2019-04-07T19:04:17.308Z,71.72
2019-04-07T19:06:57.960Z,71.64
2019-04-07T19:09:50.823Z,71.73
2019-04-07T19:13:07.059Z,71.72
2019-04-07T19:15:48.817Z,71.79
2019-04-07T19:18:36.801Z,72.22
2019-04-07T19:21:24.807Z,72.17
2019-04-07T19:24:08.006Z,72.49
2019-04-07T19:26:57.394Z,72.29
2019-04-07T19:30:06.139Z,72.36
2019-04-07T19:32:56.168Z,72.19
2019-04-07T19:35:48.573Z,72.03
2019-04-07T19:38:37.851Z,72.38
2019-04-07T19:41:29.413Z,72.66
2019-04-07T19:44:33.491Z,72.60
2019-04-07T19:47:23.418Z,72.70
2019-04-07T19:50:21.462Z,72.59
2019-04-07T19:53:22.471Z,72.55
2019-04-07T19:56:29.844Z,72.90
2019-04-07T19:59:19.561Z,72.93
2019-04-07T20:02:15.314Z,73.05
2019-04-07T20:05:07.985Z,72.91
2019-04-07T20:07:56.111Z,72.87
2019-04-07T20:10:42.565Z,72.69
2019-04-07T20:13:44.562Z,73.04
2019-04-07T20:16:36.908Z,73.66
2019-04-07T20:19:22.122Z,74.86
2019-04-07T20:22:17.472Z,74.59
2019-04-07T20:25:13.275Z,74.49
2019-04-07T20:28:02.297Z,74.16
2019-04-07T20:30:51.489Z,74.59
2019-04-07T20:33:33.068Z,74.46
2019-04-07T20:36:27.739Z,74.34
2019-04-07T20:39:15.457Z,74.36
2019-04-07T20:41:55.232Z,74.41
2019-04-07T20:44:58.454Z,74.37
2019-04-07T20:47:56.583Z,74.71
2019-04-07T20:50:51.180Z,74.79
2019-04-07T20:53:39.556Z,74.67
2019-04-07T20:56:48.302Z,74.16
2019-04-07T20:59:46.813Z,74.79
2019-04-07T21:02:27.147Z,74.68
2019-04-07T21:05:17.193Z,74.49
2019-04-07T21:08:10.357Z,74.08
2019-04-07T21:10:56.118Z,74.03
2019-04-07T21:14:00.867Z,74.01
2019-04-07T21:16:50.974Z,73.84
2019-04-07T21:19:35.493Z,73.71
2019-04-07T21:22:22.806Z,73.97
2019-04-07T21:25:15.569Z,73.56
2019-04-07T21:28:08.916Z,74.22
2019-04-07T21:30:46.956Z,74.03
2019-04-07T21:33:34.695Z,73.90
2019-04-07T21:36:25.926Z,73.55
2019-04-07T21:39:20.470Z,74.06
2019-04-07T21:42:24.332Z,73.48
2019-04-07T21:45:14.790Z,73.37
2019-04-07T21:47:58.664Z,73.40
2019-04-07T21:50:48.139Z,73.31
2019-04-07T21:53:41.011Z,73.20
2019-04-07T21:56:43.122Z,73.02
2019-04-07T21:59:31.164Z,72.68
2019-04-07T22:02:15.362Z,72.68
2019-04-07T22:04:56.643Z,72.63
2019-04-07T22:07:49.277Z,72.79
2019-04-07T22:10:21.657Z,72.91
2019-04-07T22:12:51.996Z,72.83
2019-04-07T22:15:22.673Z,72.82
2019-04-07T22:17:54.148Z,72.71
2019-04-07T22:20:25.070Z,72.64
2019-04-07T22:22:59.156Z,72.97
2019-04-07T22:25:36.161Z,72.83
2019-04-07T22:28:07.741Z,72.96
2019-04-07T22:30:41.263Z,73.11
2019-04-07T22:33:12.347Z,73.05
2019-04-07T22:35:44.472Z,73.05
2019-04-07T22:38:17.587Z,73.24
2019-04-07T22:40:47.502Z,73.19
2019-04-07T22:43:18.898Z,73.29
2019-04-07T22:45:59.117Z,73.26
2019-04-07T22:48:25.493Z,73.28
2019-04-07T22:50:54.690Z,73.37
2019-04-07T22:53:28.451Z,73.42
2019-04-07T22:55:57.453Z,73.44
2019-04-07T22:58:27.917Z,73.52
2019-04-07T23:00:58.607Z,73.45
2019-04-07T23:03:29.378Z,73.52
2019-04-07T23:06:00.833Z,73.50
2019-04-07T23:08:31.475Z,73.60
2019-04-07T23:11:02.192Z,73.61
2019-04-07T23:13:32.705Z,73.65
2019-04-07T23:16:11.645Z,73.45
2019-04-07T23:18:36.118Z,73.79
2019-04-07T23:21:07.894Z,73.90
2019-04-07T23:23:38.433Z,73.80
2019-04-07T23:26:09.539Z,73.97
2019-04-07T23:28:40.257Z,74.07
2019-04-07T23:31:11.654Z,74.51
2019-04-07T23:33:42.157Z,74.58
2019-04-07T23:36:12.597Z,74.60
2019-04-07T23:38:43.083Z,74.76
2019-04-07T23:41:13.810Z,74.73
2019-04-07T23:43:44.239Z,74.69
2019-04-07T23:46:23.050Z,74.61
2019-04-07T23:48:47.652Z,74.45
2019-04-07T23:51:18.589Z,74.78
2019-04-07T23:54:09.113Z,74.91
2019-04-07T23:56:41.545Z,74.92
2019-04-07T23:59:12.567Z,74.94
